createdAt,value
2018-08-11T00:02:23.644Z,58.85
2018-08-11T00:04:51.712Z,58.71
2018-08-11T00:07:19.776Z,58.88
2018-08-11T00:09:47.832Z,58.76
2018-08-11T00:12:15.888Z,58.48
2018-08-11T00:14:43.948Z,58.63
2018-08-11T00:17:12.024Z,58.46
2018-08-11T00:19:40.065Z,58.13
2018-08-11T00:22:08.120Z,58.50
2018-08-11T00:24:36.172Z,58.59
2018-08-11T00:27:04.265Z,58.71
2018-08-11T00:29:32.316Z,58.67
2018-08-11T00:32:00.379Z,58.92
2018-08-11T00:34:28.420Z,58.68
2018-08-11T00:36:56.474Z,58.90
2018-08-11T00:39:24.512Z,59.08
2018-08-11T00:41:52.576Z,59.38
2018-08-11T00:44:20.619Z,59.42
2018-08-11T00:46:48.732Z,59.22
2018-08-11T00:49:17.474Z,58.90
2018-08-11T00:51:45.648Z,59.30
2018-08-11T00:54:13.688Z,59.36
2018-08-11T00:56:41.735Z,59.22
2018-08-11T00:59:09.783Z,59.15
2018-08-11T01:01:37.881Z,59.18
2018-08-11T01:04:05.931Z,59.13
2018-08-11T01:06:33.976Z,58.21
2018-08-11T01:09:02.029Z,58.62
2018-08-11T01:11:30.088Z,58.21
2018-08-11T01:13:58.157Z,57.45
2018-08-11T01:16:26.225Z,58.00
2018-08-11T01:18:54.324Z,57.70
2018-08-11T01:21:22.381Z,57.45
2018-08-11T01:23:50.544Z,57.71
2018-08-11T01:26:18.591Z,57.10
2018-08-11T01:28:46.688Z,57.53
2018-08-11T01:31:14.731Z,57.15
2018-08-11T01:33:42.790Z,57.27
2018-08-11T01:36:10.862Z,57.07
2018-08-11T01:38:38.936Z,56.97
2018-08-11T01:41:06.975Z,57.17
2018-08-11T01:43:35.044Z,57.05
2018-08-11T01:46:09.796Z,57.18
2018-08-11T01:48:37.856Z,56.62
2018-08-11T01:51:05.911Z,56.42
2018-08-11T01:53:33.972Z,56.59
2018-08-11T01:56:02.054Z,56.54
2018-08-11T01:58:30.164Z,56.44
2018-08-11T02:00:58.212Z,55.78
2018-08-11T02:03:26.293Z,56.10
2018-08-11T02:05:54.385Z,56.11
2018-08-11T02:08:22.432Z,56.09
2018-08-11T02:10:50.478Z,56.01
2018-08-11T02:13:18.533Z,56.37
2018-08-11T02:15:46.596Z,56.36
2018-08-11T02:18:14.631Z,55.79
2018-08-11T02:20:42.680Z,56.17
2018-08-11T02:23:10.707Z,55.91
2018-08-11T02:25:38.747Z,54.68
2018-08-11T02:28:06.839Z,55.04
2018-08-11T02:30:34.878Z,51.93
2018-08-11T02:33:02.923Z,51.82
2018-08-11T02:35:30.957Z,51.16
2018-08-11T02:37:59.000Z,50.41
2018-08-11T02:40:27.072Z,51.17
2018-08-11T02:42:55.108Z,50.27
2018-08-11T02:45:23.177Z,50.08
2018-08-11T02:47:51.189Z,50.25
2018-08-11T02:50:19.266Z,50.25
2018-08-11T02:52:47.299Z,51.66
2018-08-11T02:55:15.336Z,51.78
2018-08-11T02:57:43.371Z,52.39
2018-08-11T03:00:12.309Z,52.48
2018-08-11T03:02:40.368Z,52.80
2018-08-11T03:05:08.408Z,53.19
2018-08-11T03:07:36.709Z,53.02
2018-08-11T03:10:05.896Z,53.21
2018-08-11T03:12:33.935Z,53.17
2018-08-11T03:15:01.979Z,53.53
2018-08-11T03:17:30.040Z,54.18
2018-08-11T03:19:58.114Z,54.39
2018-08-11T03:22:26.145Z,54.19
2018-08-11T03:24:54.205Z,54.13
2018-08-11T03:27:22.244Z,54.50
2018-08-11T03:29:50.298Z,54.75
2018-08-11T03:32:18.408Z,54.59
2018-08-11T03:34:46.464Z,54.94
2018-08-11T03:37:14.513Z,55.43
2018-08-11T03:39:42.608Z,55.37
2018-08-11T03:42:10.651Z,55.38
2018-08-11T03:44:38.722Z,55.29
2018-08-11T03:47:06.761Z,55.63
2018-08-11T03:49:34.807Z,55.73
2018-08-11T03:52:02.855Z,56.04
2018-08-11T03:54:30.903Z,56.37
2018-08-11T03:56:58.956Z,56.46
2018-08-11T03:59:27.026Z,56.77
2018-08-11T04:01:55.068Z,56.66
2018-08-11T04:04:23.140Z,57.17
2018-08-11T04:06:51.197Z,57.84
2018-08-11T04:09:19.244Z,58.45
2018-08-11T04:11:47.308Z,58.97
2018-08-11T04:14:15.343Z,59.74
2018-08-11T04:16:43.388Z,60.05
2018-08-11T04:19:11.416Z,60.91
2018-08-11T04:21:39.463Z,60.78
2018-08-11T04:24:08.110Z,61.70
2018-08-11T04:26:36.157Z,62.98
2018-08-11T04:29:04.204Z,64.16
2018-08-11T04:31:32.249Z,64.61
2018-08-11T04:34:00.276Z,65.83
2018-08-11T04:36:28.304Z,65.99
2018-08-11T04:38:56.375Z,66.63
2018-08-11T04:41:24.424Z,66.30
2018-08-11T04:43:52.448Z,66.89
2018-08-11T04:46:20.520Z,67.20
2018-08-11T04:48:48.547Z,67.47
2018-08-11T04:51:16.621Z,67.75
2018-08-11T04:53:44.651Z,67.04
2018-08-11T04:56:12.696Z,67.48
2018-08-11T04:58:40.807Z,67.97
2018-08-11T05:01:08.852Z,68.12
2018-08-11T05:03:36.875Z,68.85
2018-08-11T05:06:04.917Z,69.30
2018-08-11T05:08:32.948Z,69.35
2018-08-11T05:11:01.019Z,69.21
2018-08-11T05:13:29.058Z,69.07
2018-08-11T05:15:57.124Z,69.38
2018-08-11T05:18:25.184Z,69.60
2018-08-11T05:20:53.243Z,69.46
2018-08-11T05:23:21.315Z,69.38
2018-08-11T05:25:49.372Z,69.69
2018-08-11T05:28:17.440Z,69.40
2018-08-11T05:30:45.484Z,69.35
2018-08-11T05:33:13.610Z,69.69
2018-08-11T05:35:41.612Z,70.12
2018-08-11T05:38:09.710Z,69.99
2018-08-11T05:40:37.776Z,70.24
2018-08-11T05:43:05.862Z,70.40
2018-08-11T05:45:33.945Z,70.21
2018-08-11T05:48:02.004Z,69.90
2018-08-11T05:50:30.060Z,69.83
2018-08-11T05:52:58.121Z,70.22
2018-08-11T05:55:26.184Z,69.48
2018-08-11T05:57:54.264Z,69.70
2018-08-11T06:00:22.336Z,69.87
2018-08-11T06:02:50.396Z,70.27
2018-08-11T06:05:18.493Z,69.60
2018-08-11T06:07:46.553Z,69.79
2018-08-11T06:10:14.640Z,69.76
2018-08-11T06:12:42.708Z,69.66
2018-08-11T06:15:10.785Z,69.62
2018-08-11T06:17:38.876Z,69.56
2018-08-11T06:20:08.276Z,68.93
2018-08-11T06:22:36.381Z,69.29
2018-08-11T06:25:05.900Z,68.82
2018-08-11T06:27:33.967Z,68.91
2018-08-11T06:30:02.194Z,68.95
2018-08-11T06:32:30.204Z,68.72
2018-08-11T06:34:58.416Z,68.80
2018-08-11T06:37:26.471Z,68.34
2018-08-11T06:39:54.528Z,69.03
2018-08-11T06:42:22.598Z,68.47
2018-08-11T06:44:50.705Z,68.97
2018-08-11T06:47:18.781Z,69.00
2018-08-11T06:49:46.883Z,68.37
2018-08-11T06:52:14.952Z,68.72
2018-08-11T06:54:43.028Z,68.39
2018-08-11T06:57:11.189Z,68.00
2018-08-11T06:59:39.503Z,67.57
2018-08-11T07:02:07.589Z,67.37
2018-08-11T07:04:35.683Z,67.82
2018-08-11T07:07:04.005Z,66.98
2018-08-11T07:09:32.053Z,67.44
2018-08-11T07:12:00.115Z,67.16
2018-08-11T07:14:28.187Z,66.60
2018-08-11T07:16:56.250Z,66.86
2018-08-11T07:19:24.316Z,65.97
2018-08-11T07:21:52.412Z,66.54
2018-08-11T07:24:20.459Z,65.92
2018-08-11T07:26:48.532Z,65.71
2018-08-11T07:29:16.616Z,65.16
2018-08-11T07:31:44.660Z,65.21
2018-08-11T07:34:12.720Z,65.49
2018-08-11T07:36:40.874Z,64.47
2018-08-11T07:39:09.545Z,64.23
2018-08-11T07:41:37.612Z,64.12
2018-08-11T07:44:05.705Z,62.77
2018-08-11T07:46:33.756Z,62.73
2018-08-11T07:49:02.038Z,61.50
2018-08-11T07:51:30.094Z,61.80
2018-08-11T07:53:58.155Z,61.62
2018-08-11T07:56:26.217Z,61.41
2018-08-11T07:58:54.284Z,61.07
2018-08-11T08:01:22.354Z,59.44
2018-08-11T08:03:50.400Z,58.43
2018-08-11T08:06:18.439Z,59.13
2018-08-11T08:08:46.489Z,57.86
2018-08-11T08:11:14.532Z,57.21
2018-08-11T08:13:42.651Z,56.97
2018-08-11T08:16:10.655Z,57.08
2018-08-11T08:18:38.724Z,56.94
2018-08-11T08:21:06.807Z,55.39
2018-08-11T08:23:34.893Z,55.82
2018-08-11T08:26:03.001Z,54.94
2018-08-11T08:28:31.015Z,54.18
2018-08-11T08:31:05.609Z,54.22
2018-08-11T08:33:33.683Z,53.92
2018-08-11T08:36:02.120Z,54.17
2018-08-11T08:38:30.508Z,52.80
2018-08-11T08:40:58.615Z,53.41
2018-08-11T08:43:27.054Z,52.65
2018-08-11T08:45:55.146Z,52.79
2018-08-11T08:48:23.248Z,52.88
2018-08-11T08:50:51.329Z,52.90
2018-08-11T08:53:19.483Z,51.57
2018-08-11T08:55:47.516Z,50.63
2018-08-11T08:58:15.620Z,49.80
2018-08-11T09:00:43.688Z,48.54
2018-08-11T09:03:11.804Z,47.47
2018-08-11T09:05:39.863Z,48.39
2018-08-11T09:08:07.975Z,47.65
2018-08-11T09:10:36.056Z,49.24
2018-08-11T09:13:04.191Z,48.99
2018-08-11T09:15:32.300Z,48.92
2018-08-11T09:18:00.416Z,49.01
2018-08-11T09:20:28.521Z,48.72
2018-08-11T09:22:56.577Z,48.52
2018-08-11T09:25:24.646Z,48.62
2018-08-11T09:27:52.708Z,48.26
2018-08-11T09:30:20.776Z,47.93
2018-08-11T09:32:48.849Z,48.48
2018-08-11T09:35:16.918Z,49.25
2018-08-11T09:37:45.005Z,48.67
2018-08-11T09:40:13.063Z,49.14
2018-08-11T09:42:41.108Z,48.53
2018-08-11T09:45:09.164Z,49.09
2018-08-11T09:47:37.231Z,49.00
2018-08-11T09:50:05.331Z,50.15
2018-08-11T09:52:33.425Z,52.79
2018-08-11T09:55:01.479Z,54.00
2018-08-11T09:57:29.584Z,55.82
2018-08-11T09:59:57.808Z,56.27
2018-08-11T10:02:25.921Z,57.24
2018-08-11T10:04:53.972Z,58.27
2018-08-11T10:07:22.046Z,60.33
2018-08-11T10:09:50.108Z,60.83
2018-08-11T10:12:18.172Z,61.23
2018-08-11T10:14:46.247Z,60.54
2018-08-11T10:17:14.312Z,61.99
2018-08-11T10:19:42.372Z,61.60
2018-08-11T10:22:10.460Z,61.81
2018-08-11T10:24:38.537Z,62.09
2018-08-11T10:27:06.568Z,61.80
2018-08-11T10:29:34.628Z,61.85
2018-08-11T10:32:02.669Z,61.32
2018-08-11T10:34:30.745Z,61.96
2018-08-11T10:36:58.800Z,63.04
2018-08-11T10:39:26.852Z,62.92
2018-08-11T10:41:54.912Z,62.13
2018-08-11T10:44:22.959Z,63.37
2018-08-11T10:46:51.004Z,62.74
2018-08-11T10:49:19.096Z,62.53
2018-08-11T10:51:47.191Z,62.72
2018-08-11T10:54:15.236Z,63.07
2018-08-11T10:56:43.280Z,63.47
2018-08-11T10:59:11.337Z,61.63
2018-08-11T11:01:39.393Z,61.70
2018-08-11T11:04:07.463Z,61.20
2018-08-11T11:06:35.553Z,61.98
2018-08-11T11:09:04.612Z,61.99
2018-08-11T11:11:32.664Z,62.11
2018-08-11T11:14:00.723Z,61.86
2018-08-11T11:16:28.788Z,61.79
2018-08-11T11:18:56.835Z,61.62
2018-08-11T11:21:24.910Z,61.54
2018-08-11T11:23:52.944Z,61.75
2018-08-11T11:26:20.990Z,61.62
2018-08-11T11:28:49.024Z,61.00
2018-08-11T11:31:17.116Z,60.89
2018-08-11T11:33:45.164Z,60.44
2018-08-11T11:36:13.209Z,59.74
2018-08-11T11:38:41.238Z,59.29
2018-08-11T11:41:09.289Z,59.04
2018-08-11T11:43:37.368Z,57.10
2018-08-11T11:46:05.432Z,55.86
2018-08-11T11:48:33.500Z,56.08
2018-08-11T11:51:01.580Z,56.09
2018-08-11T11:53:29.631Z,54.04
2018-08-11T11:55:57.702Z,54.83
2018-08-11T11:58:25.760Z,53.47
2018-08-11T12:00:53.812Z,54.73
2018-08-11T12:03:21.881Z,53.08
2018-08-11T12:05:49.954Z,52.10
2018-08-11T12:08:17.995Z,51.96
2018-08-11T12:10:46.072Z,52.38
2018-08-11T12:13:14.151Z,51.21
2018-08-11T12:15:42.338Z,51.07
2018-08-11T12:18:10.401Z,49.27
2018-08-11T12:20:38.560Z,48.29
2018-08-11T12:23:06.677Z,47.89
2018-08-11T12:25:34.760Z,48.22
2018-08-11T12:28:02.841Z,48.33
2018-08-11T12:30:30.928Z,48.95
2018-08-11T12:32:59.012Z,47.99
2018-08-11T12:35:27.079Z,48.46
2018-08-11T12:37:55.195Z,46.99
2018-08-11T12:40:23.224Z,47.21
2018-08-11T12:42:51.327Z,46.03
2018-08-11T12:45:19.407Z,46.56
2018-08-11T12:47:47.504Z,46.49
2018-08-11T12:50:15.563Z,46.59
2018-08-11T12:52:43.644Z,46.51
2018-08-11T12:55:11.807Z,47.05
2018-08-11T12:57:39.886Z,49.24
2018-08-11T13:00:09.181Z,51.30
2018-08-11T13:02:37.352Z,53.65
2018-08-11T13:05:05.534Z,54.05
2018-08-11T13:07:33.678Z,56.03
2018-08-11T13:10:01.750Z,56.54
2018-08-11T13:12:30.424Z,56.66
2018-08-11T13:14:58.488Z,58.48
2018-08-11T13:17:26.557Z,59.09
2018-08-11T13:19:54.588Z,59.58
2018-08-11T13:22:23.035Z,60.50
2018-08-11T13:24:51.076Z,62.29
2018-08-11T13:27:19.161Z,62.89
2018-08-11T13:29:47.244Z,61.09
2018-08-11T13:32:15.361Z,60.05
2018-08-11T13:34:43.394Z,60.86
2018-08-11T13:37:11.496Z,60.96
2018-08-11T13:39:46.167Z,61.27
2018-08-11T13:42:14.336Z,62.07
2018-08-11T13:44:42.397Z,62.18
2018-08-11T13:47:10.458Z,61.34
2018-08-11T13:49:38.510Z,61.09
2018-08-11T13:52:06.591Z,60.81
2018-08-11T13:54:34.672Z,60.60
2018-08-11T13:57:02.741Z,60.07
2018-08-11T13:59:30.812Z,59.51
2018-08-11T14:01:58.888Z,59.88
2018-08-11T14:04:26.951Z,59.52
2018-08-11T14:06:55.041Z,57.94
2018-08-11T14:09:23.111Z,57.47
2018-08-11T14:11:51.202Z,57.58
2018-08-11T14:14:19.267Z,56.63
2018-08-11T14:16:47.336Z,56.87
2018-08-11T14:19:15.394Z,56.70
2018-08-11T14:21:43.541Z,55.28
2018-08-11T14:24:11.568Z,55.06
2018-08-11T14:26:39.644Z,53.63
2018-08-11T14:29:07.706Z,53.01
